Impacts METAR Board INFO
IDs:

KPIT - Pittsburgh Intl, PA, US

Updated at: 0714 UTC 24 Nov 2017
Potential Impact None Slight Moderate High
Time23/19Z 23/20Z 23/21Z 23/22Z 23/23Z 24/00Z 24/01Z 24/02Z 24/03Z 24/04Z 24/05Z 24/06Z 24/07Z
VIS10 10 10 10 10 10 10 10 10 10 10 10 10
CIG220 -- -- 110 -- 120 55 55 -- -- -- -- --
CoverBKNSCTSCTBKNSCTBKNBKNBKNFEWFEWSCTCLRCLR
FltCatVFRVFRVFRVFRVFRVFRVFRVFRVFRVFRVFRVFRVFR
WX--------------------------
WDir023021020022022022024022000180180
WSpd3 7 5 4 4 3 5 3 3 0 0 3 3
WGst-- -- -- -- -- -- -- -- -- -- -- -- --
Raw hourly METARs
KPIT 231851Z VRB03KT 10SM SCT090 BKN220 03/M06 A3004 RMK AO2 SLP193 T00331056 $
KPIT 231951Z 23007KT 10SM SCT090 SCT220 04/M06 A3002 RMK AO2 SLP186 T00391061 $
KPIT 232051Z 21005KT 10SM SCT120 SCT250 04/M07 A3002 RMK AO2 SLP184 T00391067 56016 $
KPIT 232151Z 20004KT 10SM BKN110 BKN250 04/M07 A3000 RMK AO2 SLP180 T00391067 $
KPIT 232251Z 22004KT 10SM SCT110 SCT250 03/M06 A3000 RMK AO2 SLP178 T00331061 $
KPIT 232351Z 22003KT 10SM SCT060 BKN120 03/M06 A3000 RMK AO2 SLP180 T00281056 10044 20022 55005 $
KPIT 240051Z 22005KT 10SM BKN055 BKN120 03/M06 A3001 RMK AO2 SLP184 T00281056 $
KPIT 240151Z 24003KT 10SM BKN055 03/M06 A3002 RMK AO2 SLP185 T00281056 $
KPIT 240251Z 22003KT 10SM FEW055 02/M06 A3001 RMK AO2 SLP183 T00171056 50004 $
KPIT 240351Z 00000KT 10SM FEW055 01/M06 A3002 RMK AO2 SLP184 T00061056 $
KPIT 240451Z 00000KT 10SM FEW041 SCT055 00/M05 A3004 RMK AO2 SLP191 T00001050 400441061 $
KPIT 240551Z 18003KT 10SM CLR M02/M05 A3002 RMK AO2 SLP184 T10171050 10028 21017 50001 $
KPIT 240651Z 18003KT 10SM CLR M02/M05 A3000 RMK AO2 SLP178 T10171050 $